sensor_id;sensor_type;location;lat;lon;timestamp;P1;durP1;ratioP1;P2;durP2;ratioP2
12745;SDS011;6437;53.686;10.030;2023-03-20T00:01:53;48.92;;;28.10;;
12745;SDS011;6437;53.686;10.030;2023-03-20T00:03:56;52.38;;;31.92;;
12745;SDS011;6437;53.686;10.030;2023-03-20T00:07:59;57.72;;;30.90;;
12745;SDS011;6437;53.686;10.030;2023-03-20T00:10:01;52.10;;;29.38;;
12745;SDS011;6437;53.686;10.030;2023-03-20T00:14:06;54.83;;;32.53;;
12745;SDS011;6437;53.686;10.030;2023-03-20T00:16:11;58.03;;;32.30;;
12745;SDS011;6437;53.686;10.030;2023-03-20T00:18:14;54.65;;;30.77;;
12745;SDS011;6437;53.686;10.030;2023-03-20T00:20:19;51.75;;;30.63;;
12745;SDS011;6437;53.686;10.030;2023-03-20T00:24:22;59.92;;;34.08;;
12745;SDS011;6437;53.686;10.030;2023-03-20T00:26:25;59.67;;;34.30;;
12745;SDS011;6437;53.686;10.030;2023-03-20T00:28:38;57.80;;;32.10;;
12745;SDS011;6437;53.686;10.030;2023-03-20T00:30:41;62.50;;;34.40;;
12745;SDS011;6437;53.686;10.030;2023-03-20T00:32:46;52.75;;;32.28;;
12745;SDS011;6437;53.686;10.030;2023-03-20T00:34:48;54.58;;;31.67;;
12745;SDS011;6437;53.686;10.030;2023-03-20T00:36:50;57.33;;;33.30;;
12745;SDS011;6437;53.686;10.030;2023-03-20T00:38:52;54.03;;;32.25;;
12745;SDS011;6437;53.686;10.030;2023-03-20T00:40:56;60.20;;;34.15;;
12745;SDS011;6437;53.686;10.030;2023-03-20T00:42:59;58.28;;;31.45;;
12745;SDS011;6437;53.686;10.030;2023-03-20T00:45:02;64.78;;;35.20;;
12745;SDS011;6437;53.686;10.030;2023-03-20T00:47:08;57.05;;;32.67;;
12745;SDS011;6437;53.686;10.030;2023-03-20T00:49:18;57.77;;;33.63;;
12745;SDS011;6437;53.686;10.030;2023-03-20T00:51:22;67.97;;;36.10;;
12745;SDS011;6437;53.686;10.030;2023-03-20T00:53:24;65.63;;;37.65;;
12745;SDS011;6437;53.686;10.030;2023-03-20T00:55:26;66.35;;;36.22;;
12745;SDS011;6437;53.686;10.030;2023-03-20T00:57:37;60.88;;;34.58;;
12745;SDS011;6437;53.686;10.030;2023-03-20T00:59:45;61.45;;;35.13;;
12745;SDS011;6437;53.686;10.030;2023-03-20T01:01:53;63.88;;;34.47;;
12745;SDS011;6437;53.686;10.030;2023-03-20T01:05:58;60.10;;;32.22;;
12745;SDS011;6437;53.686;10.030;2023-03-20T01:08:00;64.53;;;33.50;;
12745;SDS011;6437;53.686;10.030;2023-03-20T01:10:02;62.67;;;34.67;;
12745;SDS011;6437;53.686;10.030;2023-03-20T01:12:04;83.32;;;45.45;;
12745;SDS011;6437;53.686;10.030;2023-03-20T01:14:10;65.35;;;36.75;;
12745;SDS011;6437;53.686;10.030;2023-03-20T01:16:18;63.55;;;35.85;;
12745;SDS011;6437;53.686;10.030;2023-03-20T01:18:22;71.03;;;36.80;;
12745;SDS011;6437;53.686;10.030;2023-03-20T01:20:25;65.30;;;35.13;;
12745;SDS011;6437;53.686;10.030;2023-03-20T01:22:30;63.50;;;34.60;;
12745;SDS011;6437;53.686;10.030;2023-03-20T01:24:32;61.17;;;32.85;;
12745;SDS011;6437;53.686;10.030;2023-03-20T01:26:34;59.33;;;34.90;;
12745;SDS011;6437;53.686;10.030;2023-03-20T01:28:38;54.28;;;32.47;;
12745;SDS011;6437;53.686;10.030;2023-03-20T01:30:40;53.10;;;31.95;;
12745;SDS011;6437;53.686;10.030;2023-03-20T01:32:42;59.80;;;32.72;;
12745;SDS011;6437;53.686;10.030;2023-03-20T01:34:45;46.10;;;26.10;;
12745;SDS011;6437;53.686;10.030;2023-03-20T01:36:48;41.10;;;22.15;;
12745;SDS011;6437;53.686;10.030;2023-03-20T01:38:54;48.72;;;24.90;;
12745;SDS011;6437;53.686;10.030;2023-03-20T01:40:58;43.75;;;21.58;;
12745;SDS011;6437;53.686;10.030;2023-03-20T01:43:04;41.28;;;21.80;;
12745;SDS011;6437;53.686;10.030;2023-03-20T01:45:14;39.78;;;22.50;;
12745;SDS011;6437;53.686;10.030;2023-03-20T01:47:19;39.72;;;21.42;;
12745;SDS011;6437;53.686;10.030;2023-03-20T01:52:16;41.33;;;19.55;;
12745;SDS011;6437;53.686;10.030;2023-03-20T01:54:20;32.05;;;19.30;;
12745;SDS011;6437;53.686;10.030;2023-03-20T01:56:25;36.78;;;18.23;;
12745;SDS011;6437;53.686;10.030;2023-03-20T01:58:33;31.77;;;18.33;;
12745;SDS011;6437;53.686;10.030;2023-03-20T02:00:38;33.55;;;18.10;;
12745;SDS011;6437;53.686;10.030;2023-03-20T02:02:40;27.90;;;17.55;;
12745;SDS011;6437;53.686;10.030;2023-03-20T02:04:44;27.65;;;16.25;;
12745;SDS011;6437;53.686;10.030;2023-03-20T02:06:50;31.25;;;17.98;;
12745;SDS011;6437;53.686;10.030;2023-03-20T02:08:52;28.98;;;16.88;;
12745;SDS011;6437;53.686;10.030;2023-03-20T02:13:00;26.45;;;15.30;;
12745;SDS011;6437;53.686;10.030;2023-03-20T02:15:03;32.40;;;17.25;;
12745;SDS011;6437;53.686;10.030;2023-03-20T02:17:07;30.35;;;16.40;;
12745;SDS011;6437;53.686;10.030;2023-03-20T02:19:12;29.10;;;16.42;;
12745;SDS011;6437;53.686;10.030;2023-03-20T02:24:02;23.08;;;15.80;;
12745;SDS011;6437;53.686;10.030;2023-03-20T02:26:42;24.98;;;16.23;;
12745;SDS011;6437;53.686;10.030;2023-03-20T02:39:54;20.02;;;12.38;;
12745;SDS011;6437;53.686;10.030;2023-03-20T02:42:06;22.23;;;13.32;;
12745;SDS011;6437;53.686;10.030;2023-03-20T02:44:13;23.33;;;13.25;;
12745;SDS011;6437;53.686;10.030;2023-03-20T02:46:23;16.35;;;10.30;;
12745;SDS011;6437;53.686;10.030;2023-03-20T02:48:36;18.92;;;11.32;;
12745;SDS011;6437;53.686;10.030;2023-03-20T02:50:46;18.70;;;10.88;;
12745;SDS011;6437;53.686;10.030;2023-03-20T02:52:55;17.20;;;10.50;;
12745;SDS011;6437;53.686;10.030;2023-03-20T02:55:05;13.43;;;9.13;;
12745;SDS011;6437;53.686;10.030;2023-03-20T02:57:15;16.27;;;9.38;;
12745;SDS011;6437;53.686;10.030;2023-03-20T02:59:25;12.25;;;8.68;;
12745;SDS011;6437;53.686;10.030;2023-03-20T03:01:34;10.95;;;6.65;;
12745;SDS011;6437;53.686;10.030;2023-03-20T03:03:42;13.73;;;7.32;;
12745;SDS011;6437;53.686;10.030;2023-03-20T03:05:49;10.05;;;6.90;;
12745;SDS011;6437;53.686;10.030;2023-03-20T03:07:56;8.73;;;5.50;;
12745;SDS011;6437;53.686;10.030;2023-03-20T03:10:01;7.43;;;4.78;;
12745;SDS011;6437;53.686;10.030;2023-03-20T03:12:09;7.05;;;4.30;;
12745;SDS011;6437;53.686;10.030;2023-03-20T03:14:17;9.05;;;5.15;;
12745;SDS011;6437;53.686;10.030;2023-03-20T03:16:25;10.63;;;5.20;;
12745;SDS011;6437;53.686;10.030;2023-03-20T03:18:30;10.77;;;5.40;;
12745;SDS011;6437;53.686;10.030;2023-03-20T03:20:36;7.80;;;5.35;;
12745;SDS011;6437;53.686;10.030;2023-03-20T03:22:39;8.38;;;4.80;;
12745;SDS011;6437;53.686;10.030;2023-03-20T03:26:45;7.30;;;4.55;;
12745;SDS011;6437;53.686;10.030;2023-03-20T03:30:50;9.68;;;4.80;;
12745;SDS011;6437;53.686;10.030;2023-03-20T03:32:59;10.50;;;5.93;;
12745;SDS011;6437;53.686;10.030;2023-03-20T03:35:12;12.13;;;4.07;;
12745;SDS011;6437;53.686;10.030;2023-03-20T03:37:19;6.20;;;3.92;;
12745;SDS011;6437;53.686;10.030;2023-03-20T03:39:36;7.47;;;4.95;;
12745;SDS011;6437;53.686;10.030;2023-03-20T03:41:44;7.70;;;4.90;;
12745;SDS011;6437;53.686;10.030;2023-03-20T03:43:51;5.63;;;3.70;;
12745;SDS011;6437;53.686;10.030;2023-03-20T03:45:59;5.03;;;3.20;;
12745;SDS011;6437;53.686;10.030;2023-03-20T03:48:05;5.40;;;3.38;;
12745;SDS011;6437;53.686;10.030;2023-03-20T03:50:12;6.60;;;3.28;;
12745;SDS011;6437;53.686;10.030;2023-03-20T03:52:20;7.85;;;3.85;;
12745;SDS011;6437;53.686;10.030;2023-03-20T03:54:26;4.97;;;3.25;;
12745;SDS011;6437;53.686;10.030;2023-03-20T03:56:32;6.93;;;4.03;;
12745;SDS011;6437;53.686;10.030;2023-03-20T03:58:38;6.05;;;3.92;;
12745;SDS011;6437;53.686;10.030;2023-03-20T04:00:43;6.38;;;4.05;;
12745;SDS011;6437;53.686;10.030;2023-03-20T04:02:50;4.47;;;3.28;;
12745;SDS011;6437;53.686;10.030;2023-03-20T04:04:55;3.70;;;2.15;;
12745;SDS011;6437;53.686;10.030;2023-03-20T04:06:57;4.57;;;2.28;;
12745;SDS011;6437;53.686;10.030;2023-03-20T04:08:59;6.43;;;3.75;;
12745;SDS011;6437;53.686;10.030;2023-03-20T04:11:01;4.45;;;2.10;;
12745;SDS011;6437;53.686;10.030;2023-03-20T04:13:03;7.07;;;3.85;;
12745;SDS011;6437;53.686;10.030;2023-03-20T04:15:07;7.60;;;3.10;;
12745;SDS011;6437;53.686;10.030;2023-03-20T04:17:10;3.92;;;2.28;;
12745;SDS011;6437;53.686;10.030;2023-03-20T04:19:12;4.68;;;2.70;;
12745;SDS011;6437;53.686;10.030;2023-03-20T04:21:14;4.25;;;1.92;;
12745;SDS011;6437;53.686;10.030;2023-03-20T04:23:16;3.40;;;2.50;;
12745;SDS011;6437;53.686;10.030;2023-03-20T04:25:19;5.10;;;3.17;;
12745;SDS011;6437;53.686;10.030;2023-03-20T04:27:22;2.75;;;2.05;;
12745;SDS011;6437;53.686;10.030;2023-03-20T04:29:24;4.78;;;2.58;;
12745;SDS011;6437;53.686;10.030;2023-03-20T04:31:27;3.58;;;2.30;;
12745;SDS011;6437;53.686;10.030;2023-03-20T04:33:30;5.47;;;2.67;;
12745;SDS011;6437;53.686;10.030;2023-03-20T04:35:32;4.40;;;2.38;;
12745;SDS011;6437;53.686;10.030;2023-03-20T04:37:34;4.13;;;2.65;;
12745;SDS011;6437;53.686;10.030;2023-03-20T04:41:38;3.00;;;1.90;;
12745;SDS011;6437;53.686;10.030;2023-03-20T04:45:42;5.43;;;2.58;;
12745;SDS011;6437;53.686;10.030;2023-03-20T04:47:46;3.38;;;2.22;;
12745;SDS011;6437;53.686;10.030;2023-03-20T04:49:48;6.75;;;2.80;;
12745;SDS011;6437;53.686;10.030;2023-03-20T04:51:50;4.18;;;2.67;;
12745;SDS011;6437;53.686;10.030;2023-03-20T04:53:51;6.07;;;2.60;;
12745;SDS011;6437;53.686;10.030;2023-03-20T04:55:54;4.15;;;2.40;;
12745;SDS011;6437;53.686;10.030;2023-03-20T04:57:56;5.88;;;3.40;;
12745;SDS011;6437;53.686;10.030;2023-03-20T04:59:57;11.43;;;3.83;;
12745;SDS011;6437;53.686;10.030;2023-03-20T05:01:59;5.32;;;3.25;;
12745;SDS011;6437;53.686;10.030;2023-03-20T05:04:03;6.43;;;3.40;;
12745;SDS011;6437;53.686;10.030;2023-03-20T05:06:05;9.10;;;3.38;;
12745;SDS011;6437;53.686;10.030;2023-03-20T05:08:08;5.57;;;3.85;;
12745;SDS011;6437;53.686;10.030;2023-03-20T05:12:12;5.43;;;3.55;;
12745;SDS011;6437;53.686;10.030;2023-03-20T05:14:14;12.90;;;4.95;;
12745;SDS011;6437;53.686;10.030;2023-03-20T05:16:16;9.15;;;5.20;;
12745;SDS011;6437;53.686;10.030;2023-03-20T05:18:19;7.95;;;5.53;;
12745;SDS011;6437;53.686;10.030;2023-03-20T05:20:22;7.15;;;4.55;;
12745;SDS011;6437;53.686;10.030;2023-03-20T05:22:24;8.23;;;4.97;;
12745;SDS011;6437;53.686;10.030;2023-03-20T05:24:27;7.32;;;5.13;;
12745;SDS011;6437;53.686;10.030;2023-03-20T05:28:31;13.57;;;7.85;;
12745;SDS011;6437;53.686;10.030;2023-03-20T05:30:33;9.30;;;6.35;;
12745;SDS011;6437;53.686;10.030;2023-03-20T05:34:37;9.95;;;5.38;;
12745;SDS011;6437;53.686;10.030;2023-03-20T05:36:41;10.30;;;4.80;;
12745;SDS011;6437;53.686;10.030;2023-03-20T05:38:43;7.00;;;4.88;;
12745;SDS011;6437;53.686;10.030;2023-03-20T05:42:47;8.27;;;3.95;;
12745;SDS011;6437;53.686;10.030;2023-03-20T05:44:49;7.78;;;4.22;;
12745;SDS011;6437;53.686;10.030;2023-03-20T05:46:51;6.03;;;3.42;;
12745;SDS011;6437;53.686;10.030;2023-03-20T05:48:53;7.22;;;3.88;;
12745;SDS011;6437;53.686;10.030;2023-03-20T05:50:56;6.55;;;4.43;;
12745;SDS011;6437;53.686;10.030;2023-03-20T05:52:59;6.35;;;3.08;;
12745;SDS011;6437;53.686;10.030;2023-03-20T05:55:01;9.15;;;3.58;;
12745;SDS011;6437;53.686;10.030;2023-03-20T05:57:03;10.50;;;4.00;;
12745;SDS011;6437;53.686;10.030;2023-03-20T06:01:07;7.93;;;3.90;;
12745;SDS011;6437;53.686;10.030;2023-03-20T06:03:09;6.13;;;3.40;;
12745;SDS011;6437;53.686;10.030;2023-03-20T06:05:11;8.07;;;5.45;;
12745;SDS011;6437;53.686;10.030;2023-03-20T06:07:13;6.05;;;2.85;;
12745;SDS011;6437;53.686;10.030;2023-03-20T06:09:16;7.18;;;2.92;;
12745;SDS011;6437;53.686;10.030;2023-03-20T06:11:19;6.22;;;3.00;;
12745;SDS011;6437;53.686;10.030;2023-03-20T06:13:21;7.57;;;4.63;;
12745;SDS011;6437;53.686;10.030;2023-03-20T06:15:23;13.13;;;5.15;;
12745;SDS011;6437;53.686;10.030;2023-03-20T06:17:25;9.10;;;4.70;;
12745;SDS011;6437;53.686;10.030;2023-03-20T06:19:27;8.90;;;5.40;;
12745;SDS011;6437;53.686;10.030;2023-03-20T06:21:29;6.03;;;4.10;;
12745;SDS011;6437;53.686;10.030;2023-03-20T06:23:31;9.07;;;5.05;;
12745;SDS011;6437;53.686;10.030;2023-03-20T06:25:34;8.15;;;4.70;;
12745;SDS011;6437;53.686;10.030;2023-03-20T06:27:37;7.18;;;5.07;;
12745;SDS011;6437;53.686;10.030;2023-03-20T06:29:39;8.82;;;4.82;;
12745;SDS011;6437;53.686;10.030;2023-03-20T06:31:41;9.60;;;5.65;;
12745;SDS011;6437;53.686;10.030;2023-03-20T06:33:44;7.97;;;5.10;;
12745;SDS011;6437;53.686;10.030;2023-03-20T06:35:46;13.88;;;7.32;;
12745;SDS011;6437;53.686;10.030;2023-03-20T06:37:49;11.82;;;6.28;;
12745;SDS011;6437;53.686;10.030;2023-03-20T06:39:50;14.98;;;6.32;;
12745;SDS011;6437;53.686;10.030;2023-03-20T06:41:54;7.40;;;5.80;;
12745;SDS011;6437;53.686;10.030;2023-03-20T06:43:55;14.02;;;6.85;;
12745;SDS011;6437;53.686;10.030;2023-03-20T06:45:57;12.65;;;7.25;;
12745;SDS011;6437;53.686;10.030;2023-03-20T06:47:59;10.90;;;6.97;;
12745;SDS011;6437;53.686;10.030;2023-03-20T06:50:01;11.98;;;6.40;;
12745;SDS011;6437;53.686;10.030;2023-03-20T06:52:03;11.75;;;6.75;;
12745;SDS011;6437;53.686;10.030;2023-03-20T06:54:05;13.57;;;6.85;;
12745;SDS011;6437;53.686;10.030;2023-03-20T06:58:11;12.40;;;7.57;;
12745;SDS011;6437;53.686;10.030;2023-03-20T07:00:13;13.50;;;7.72;;
12745;SDS011;6437;53.686;10.030;2023-03-20T07:02:16;12.85;;;6.97;;
12745;SDS011;6437;53.686;10.030;2023-03-20T07:04:18;21.67;;;8.10;;
12745;SDS011;6437;53.686;10.030;2023-03-20T07:06:20;16.50;;;7.57;;
12745;SDS011;6437;53.686;10.030;2023-03-20T07:08:22;13.20;;;7.57;;
12745;SDS011;6437;53.686;10.030;2023-03-20T07:10:24;16.75;;;9.05;;
12745;SDS011;6437;53.686;10.030;2023-03-20T07:14:29;13.03;;;7.00;;
12745;SDS011;6437;53.686;10.030;2023-03-20T07:16:32;12.68;;;7.78;;
12745;SDS011;6437;53.686;10.030;2023-03-20T07:18:35;15.05;;;7.60;;
12745;SDS011;6437;53.686;10.030;2023-03-20T07:22:42;10.70;;;7.43;;
12745;SDS011;6437;53.686;10.030;2023-03-20T07:24:47;16.40;;;7.97;;
12745;SDS011;6437;53.686;10.030;2023-03-20T07:26:49;14.60;;;6.85;;
12745;SDS011;6437;53.686;10.030;2023-03-20T07:28:51;11.05;;;8.20;;
12745;SDS011;6437;53.686;10.030;2023-03-20T07:30:54;15.70;;;7.25;;
12745;SDS011;6437;53.686;10.030;2023-03-20T07:32:56;17.45;;;7.40;;
12745;SDS011;6437;53.686;10.030;2023-03-20T07:34:58;16.67;;;7.75;;
12745;SDS011;6437;53.686;10.030;2023-03-20T07:37:00;12.50;;;6.95;;
12745;SDS011;6437;53.686;10.030;2023-03-20T07:39:02;14.07;;;6.85;;
12745;SDS011;6437;53.686;10.030;2023-03-20T07:41:04;11.98;;;6.20;;
12745;SDS011;6437;53.686;10.030;2023-03-20T07:43:06;11.32;;;6.85;;
12745;SDS011;6437;53.686;10.030;2023-03-20T07:45:09;10.55;;;6.70;;
12745;SDS011;6437;53.686;10.030;2023-03-20T07:47:13;15.07;;;6.35;;
12745;SDS011;6437;53.686;10.030;2023-03-20T07:49:15;11.32;;;5.57;;
12745;SDS011;6437;53.686;10.030;2023-03-20T07:51:17;8.50;;;5.15;;
12745;SDS011;6437;53.686;10.030;2023-03-20T07:53:19;11.23;;;6.10;;
12745;SDS011;6437;53.686;10.030;2023-03-20T07:57:23;9.82;;;5.20;;
12745;SDS011;6437;53.686;10.030;2023-03-20T07:59:25;9.35;;;4.75;;
12745;SDS011;6437;53.686;10.030;2023-03-20T08:01:27;9.48;;;3.88;;
12745;SDS011;6437;53.686;10.030;2023-03-20T08:03:31;9.75;;;5.38;;
12745;SDS011;6437;53.686;10.030;2023-03-20T08:05:33;12.07;;;4.32;;
12745;SDS011;6437;53.686;10.030;2023-03-20T08:09:37;10.90;;;5.00;;
12745;SDS011;6437;53.686;10.030;2023-03-20T08:13:40;11.63;;;5.28;;
12745;SDS011;6437;53.686;10.030;2023-03-20T08:15:42;12.50;;;5.63;;
12745;SDS011;6437;53.686;10.030;2023-03-20T08:17:45;6.43;;;3.33;;
12745;SDS011;6437;53.686;10.030;2023-03-20T08:19:48;11.60;;;5.22;;
12745;SDS011;6437;53.686;10.030;2023-03-20T08:21:50;7.65;;;4.45;;
12745;SDS011;6437;53.686;10.030;2023-03-20T08:23:51;11.52;;;4.68;;
12745;SDS011;6437;53.686;10.030;2023-03-20T08:25:53;7.72;;;4.20;;
12745;SDS011;6437;53.686;10.030;2023-03-20T08:27:58;7.82;;;4.22;;
12745;SDS011;6437;53.686;10.030;2023-03-20T08:30:00;15.52;;;5.10;;
12745;SDS011;6437;53.686;10.030;2023-03-20T08:32:02;9.70;;;4.38;;
12745;SDS011;6437;53.686;10.030;2023-03-20T08:34:04;11.40;;;4.40;;
12745;SDS011;6437;53.686;10.030;2023-03-20T08:36:08;9.90;;;4.40;;
12745;SDS011;6437;53.686;10.030;2023-03-20T08:38:10;6.80;;;3.83;;
12745;SDS011;6437;53.686;10.030;2023-03-20T08:40:13;15.00;;;4.50;;
12745;SDS011;6437;53.686;10.030;2023-03-20T08:42:16;18.77;;;4.88;;
12745;SDS011;6437;53.686;10.030;2023-03-20T08:44:17;12.07;;;4.25;;
12745;SDS011;6437;53.686;10.030;2023-03-20T08:46:19;6.22;;;3.55;;
12745;SDS011;6437;53.686;10.030;2023-03-20T08:48:21;8.25;;;3.58;;
12745;SDS011;6437;53.686;10.030;2023-03-20T08:50:23;10.80;;;3.78;;
12745;SDS011;6437;53.686;10.030;2023-03-20T08:52:26;12.80;;;3.78;;
12745;SDS011;6437;53.686;10.030;2023-03-20T08:54:28;10.88;;;3.17;;
12745;SDS011;6437;53.686;10.030;2023-03-20T08:56:30;10.07;;;4.20;;
12745;SDS011;6437;53.686;10.030;2023-03-20T08:58:32;8.90;;;3.25;;
12745;SDS011;6437;53.686;10.030;2023-03-20T09:00:33;7.32;;;3.97;;
12745;SDS011;6437;53.686;10.030;2023-03-20T09:02:36;7.88;;;3.40;;
12745;SDS011;6437;53.686;10.030;2023-03-20T09:04:38;9.80;;;2.95;;
12745;SDS011;6437;53.686;10.030;2023-03-20T09:06:39;8.00;;;3.63;;
12745;SDS011;6437;53.686;10.030;2023-03-20T09:08:43;7.93;;;2.83;;
12745;SDS011;6437;53.686;10.030;2023-03-20T09:10:45;6.30;;;2.17;;
12745;SDS011;6437;53.686;10.030;2023-03-20T09:12:47;7.65;;;3.08;;
12745;SDS011;6437;53.686;10.030;2023-03-20T09:14:49;10.63;;;3.28;;
12745;SDS011;6437;53.686;10.030;2023-03-20T09:16:51;6.70;;;2.80;;
12745;SDS011;6437;53.686;10.030;2023-03-20T09:18:53;9.73;;;2.80;;
12745;SDS011;6437;53.686;10.030;2023-03-20T09:20:55;11.55;;;3.35;;
12745;SDS011;6437;53.686;10.030;2023-03-20T09:22:57;9.38;;;3.33;;
12745;SDS011;6437;53.686;10.030;2023-03-20T09:25:00;13.50;;;3.10;;
12745;SDS011;6437;53.686;10.030;2023-03-20T09:27:02;7.22;;;3.28;;
12745;SDS011;6437;53.686;10.030;2023-03-20T09:29:05;8.13;;;3.33;;
12745;SDS011;6437;53.686;10.030;2023-03-20T09:31:06;7.30;;;2.92;;
12745;SDS011;6437;53.686;10.030;2023-03-20T09:33:08;8.52;;;2.95;;
12745;SDS011;6437;53.686;10.030;2023-03-20T09:35:10;11.13;;;3.28;;
12745;SDS011;6437;53.686;10.030;2023-03-20T09:37:12;10.27;;;2.75;;
12745;SDS011;6437;53.686;10.030;2023-03-20T09:39:13;9.25;;;3.35;;
12745;SDS011;6437;53.686;10.030;2023-03-20T09:41:18;14.23;;;3.47;;
12745;SDS011;6437;53.686;10.030;2023-03-20T09:43:25;8.27;;;3.63;;
12745;SDS011;6437;53.686;10.030;2023-03-20T09:45:39;7.63;;;3.70;;
12745;SDS011;6437;53.686;10.030;2023-03-20T09:47:49;7.43;;;3.10;;
12745;SDS011;6437;53.686;10.030;2023-03-20T09:50:03;12.23;;;3.67;;
12745;SDS011;6437;53.686;10.030;2023-03-20T09:52:17;15.38;;;4.57;;
12745;SDS011;6437;53.686;10.030;2023-03-20T09:54:23;7.43;;;3.20;;
12745;SDS011;6437;53.686;10.030;2023-03-20T09:56:29;12.35;;;4.72;;
12745;SDS011;6437;53.686;10.030;2023-03-20T09:58:31;9.73;;;4.88;;
12745;SDS011;6437;53.686;10.030;2023-03-20T10:00:35;11.85;;;5.60;;
12745;SDS011;6437;53.686;10.030;2023-03-20T10:02:39;8.70;;;4.03;;
12745;SDS011;6437;53.686;10.030;2023-03-20T10:04:48;16.02;;;4.78;;
12745;SDS011;6437;53.686;10.030;2023-03-20T10:06:53;7.70;;;4.38;;
12745;SDS011;6437;53.686;10.030;2023-03-20T10:08:56;8.75;;;5.15;;
12745;SDS011;6437;53.686;10.030;2023-03-20T10:11:01;11.93;;;4.40;;
12745;SDS011;6437;53.686;10.030;2023-03-20T10:13:24;11.25;;;4.78;;
12745;SDS011;6437;53.686;10.030;2023-03-20T10:15:41;10.90;;;4.35;;
12745;SDS011;6437;53.686;10.030;2023-03-20T10:17:50;9.18;;;5.55;;
12745;SDS011;6437;53.686;10.030;2023-03-20T10:20:03;9.65;;;4.75;;
12745;SDS011;6437;53.686;10.030;2023-03-20T10:22:15;12.18;;;5.30;;
12745;SDS011;6437;53.686;10.030;2023-03-20T10:24:26;10.10;;;5.22;;
12745;SDS011;6437;53.686;10.030;2023-03-20T10:26:32;10.07;;;5.55;;
12745;SDS011;6437;53.686;10.030;2023-03-20T10:28:38;8.88;;;5.10;;
12745;SDS011;6437;53.686;10.030;2023-03-20T10:30:48;13.50;;;5.57;;
12745;SDS011;6437;53.686;10.030;2023-03-20T10:32:59;17.40;;;5.88;;
12745;SDS011;6437;53.686;10.030;2023-03-20T10:35:14;26.00;;;6.55;;
12745;SDS011;6437;53.686;10.030;2023-03-20T10:37:26;15.57;;;5.10;;
12745;SDS011;6437;53.686;10.030;2023-03-20T10:39:38;16.30;;;6.60;;
12745;SDS011;6437;53.686;10.030;2023-03-20T10:41:50;11.73;;;5.63;;
12745;SDS011;6437;53.686;10.030;2023-03-20T10:43:56;11.25;;;5.15;;
12745;SDS011;6437;53.686;10.030;2023-03-20T10:46:01;11.77;;;6.22;;
12745;SDS011;6437;53.686;10.030;2023-03-20T10:48:08;10.73;;;4.45;;
12745;SDS011;6437;53.686;10.030;2023-03-20T10:50:16;10.05;;;4.63;;
12745;SDS011;6437;53.686;10.030;2023-03-20T10:52:20;15.45;;;5.60;;
12745;SDS011;6437;53.686;10.030;2023-03-20T10:54:26;13.43;;;4.35;;
12745;SDS011;6437;53.686;10.030;2023-03-20T10:56:34;14.80;;;6.53;;
12745;SDS011;6437;53.686;10.030;2023-03-20T10:58:40;14.15;;;5.10;;
12745;SDS011;6437;53.686;10.030;2023-03-20T11:00:47;14.68;;;5.95;;
12745;SDS011;6437;53.686;10.030;2023-03-20T11:02:49;18.27;;;6.38;;
12745;SDS011;6437;53.686;10.030;2023-03-20T11:04:51;9.65;;;5.38;;
12745;SDS011;6437;53.686;10.030;2023-03-20T11:06:54;12.88;;;5.40;;
12745;SDS011;6437;53.686;10.030;2023-03-20T11:09:09;9.63;;;5.40;;
12745;SDS011;6437;53.686;10.030;2023-03-20T11:11:23;13.90;;;4.95;;
12745;SDS011;6437;53.686;10.030;2023-03-20T11:13:29;19.13;;;5.40;;
12745;SDS011;6437;53.686;10.030;2023-03-20T11:15:33;23.17;;;5.40;;
12745;SDS011;6437;53.686;10.030;2023-03-20T11:17:37;14.43;;;5.70;;
12745;SDS011;6437;53.686;10.030;2023-03-20T11:19:39;18.25;;;6.03;;
12745;SDS011;6437;53.686;10.030;2023-03-20T11:21:44;13.77;;;4.72;;
12745;SDS011;6437;53.686;10.030;2023-03-20T11:23:47;19.98;;;6.03;;
12745;SDS011;6437;53.686;10.030;2023-03-20T11:25:51;14.85;;;5.40;;
12745;SDS011;6437;53.686;10.030;2023-03-20T11:27:57;17.95;;;5.25;;
12745;SDS011;6437;53.686;10.030;2023-03-20T11:30:18;9.90;;;5.45;;
12745;SDS011;6437;53.686;10.030;2023-03-20T11:32:24;15.35;;;5.30;;
12745;SDS011;6437;53.686;10.030;2023-03-20T11:34:30;20.45;;;5.25;;
12745;SDS011;6437;53.686;10.030;2023-03-20T11:36:36;11.88;;;4.65;;
12745;SDS011;6437;53.686;10.030;2023-03-20T11:41:40;20.70;;;6.80;;
12745;SDS011;6437;53.686;10.030;2023-03-20T11:43:46;16.55;;;4.13;;
12745;SDS011;6437;53.686;10.030;2023-03-20T11:45:49;15.63;;;4.68;;
12745;SDS011;6437;53.686;10.030;2023-03-20T11:47:55;14.48;;;5.18;;
12745;SDS011;6437;53.686;10.030;2023-03-20T11:49:59;14.73;;;5.05;;
12745;SDS011;6437;53.686;10.030;2023-03-20T11:52:09;15.63;;;5.60;;
12745;SDS011;6437;53.686;10.030;2023-03-20T11:54:14;18.50;;;6.43;;
12745;SDS011;6437;53.686;10.030;2023-03-20T11:56:19;14.95;;;5.32;;
12745;SDS011;6437;53.686;10.030;2023-03-20T11:58:23;21.63;;;6.07;;
12745;SDS011;6437;53.686;10.030;2023-03-20T12:00:25;13.93;;;4.97;;
12745;SDS011;6437;53.686;10.030;2023-03-20T12:02:30;13.95;;;5.32;;
12745;SDS011;6437;53.686;10.030;2023-03-20T12:06:40;13.90;;;4.45;;
12745;SDS011;6437;53.686;10.030;2023-03-20T12:08:53;14.50;;;3.85;;
12745;SDS011;6437;53.686;10.030;2023-03-20T12:10:59;14.70;;;5.15;;
12745;SDS011;6437;53.686;10.030;2023-03-20T12:13:09;14.57;;;4.80;;
12745;SDS011;6437;53.686;10.030;2023-03-20T12:15:16;15.55;;;5.07;;
12745;SDS011;6437;53.686;10.030;2023-03-20T12:17:31;12.73;;;4.05;;
12745;SDS011;6437;53.686;10.030;2023-03-20T12:19:38;10.05;;;3.83;;
12745;SDS011;6437;53.686;10.030;2023-03-20T12:21:43;15.63;;;5.28;;
12745;SDS011;6437;53.686;10.030;2023-03-20T12:23:50;17.15;;;4.20;;
12745;SDS011;6437;53.686;10.030;2023-03-20T12:25:58;19.05;;;4.72;;
12745;SDS011;6437;53.686;10.030;2023-03-20T12:28:04;14.27;;;4.53;;
12745;SDS011;6437;53.686;10.030;2023-03-20T12:30:13;15.30;;;4.85;;
12745;SDS011;6437;53.686;10.030;2023-03-20T12:32:20;13.10;;;3.92;;
12745;SDS011;6437;53.686;10.030;2023-03-20T12:34:28;15.63;;;5.18;;
12745;SDS011;6437;53.686;10.030;2023-03-20T12:36:35;12.73;;;4.47;;
12745;SDS011;6437;53.686;10.030;2023-03-20T12:38:40;10.70;;;4.28;;
12745;SDS011;6437;53.686;10.030;2023-03-20T12:40:43;9.63;;;3.58;;
12745;SDS011;6437;53.686;10.030;2023-03-20T12:42:48;10.35;;;4.47;;
12745;SDS011;6437;53.686;10.030;2023-03-20T12:45:00;8.82;;;4.60;;
12745;SDS011;6437;53.686;10.030;2023-03-20T12:47:12;13.48;;;4.85;;
12745;SDS011;6437;53.686;10.030;2023-03-20T12:49:25;14.15;;;5.10;;
12745;SDS011;6437;53.686;10.030;2023-03-20T12:51:39;12.63;;;4.65;;
12745;SDS011;6437;53.686;10.030;2023-03-20T12:53:54;13.57;;;4.25;;
12745;SDS011;6437;53.686;10.030;2023-03-20T12:56:07;13.43;;;5.97;;
12745;SDS011;6437;53.686;10.030;2023-03-20T12:58:22;13.52;;;5.03;;
12745;SDS011;6437;53.686;10.030;2023-03-20T13:00:31;12.73;;;4.70;;
12745;SDS011;6437;53.686;10.030;2023-03-20T13:02:40;14.57;;;4.57;;
12745;SDS011;6437;53.686;10.030;2023-03-20T13:04:53;9.18;;;3.60;;
12745;SDS011;6437;53.686;10.030;2023-03-20T13:07:04;16.17;;;5.28;;
12745;SDS011;6437;53.686;10.030;2023-03-20T13:09:22;13.98;;;5.50;;
12745;SDS011;6437;53.686;10.030;2023-03-20T13:11:48;8.98;;;5.30;;
12745;SDS011;6437;53.686;10.030;2023-03-20T13:13:57;12.52;;;4.95;;
12745;SDS011;6437;53.686;10.030;2023-03-20T13:16:07;14.98;;;5.32;;
12745;SDS011;6437;53.686;10.030;2023-03-20T13:18:16;18.27;;;5.77;;
12745;SDS011;6437;53.686;10.030;2023-03-20T13:20:23;15.23;;;4.65;;
12745;SDS011;6437;53.686;10.030;2023-03-20T13:22:29;10.73;;;4.72;;
12745;SDS011;6437;53.686;10.030;2023-03-20T13:24:39;8.40;;;4.30;;
12745;SDS011;6437;53.686;10.030;2023-03-20T13:26:45;11.75;;;4.75;;